Historyczne dane pomiarowe

Dodano dane terminowe – wersja testowa.

Dane z okresu 1951-2018

Wersja bazy: 1.27 [2018-11-28, lista zmian], aktualizacja planowana na 2018-12-07

Dane meteo z obszaru Polski uzyskane na podstawie danych udostępnionych przez Instytut Meteorologii i Gospodarki Wodnej – Państwowy Instytut Badawczy.

 

Wybierz Datę:    

       

TemperaturaWilgotnośćWiatrCiśnienieOpadyŚniegCzas trwania zjawisk
 Stacja t tx tn tng RH VA  wxwx mslp ppp RRR   cm mm wxwxwxwxwxwxwx
1978-11-08 3.3 9.2 0.4- 84.0- 2.7 1.0---- 0.0------------
1978-11-09 -1.8 3.3 -4.6- 91.3- 0.7 1.3---- 0.0------------
1978-11-10 -0.5 5.4 -3.6- 87.3- 2.0 1.3---- 0.0------------
1978-11-11 -1.7 5.8 -5.6- 82.0- 0.0 1.3---- 0.0------------
1978-11-12 -3.2 7.5 -8.2- 87.3- 0.3 0.3---- 0.0------------
1978-11-13 -2.4 10.1 -8.6- 76.5- 0.0 0.3---- 0.0------------
1978-11-14 -2.6 5.4 -9.4- 89.3- 5.0 0.3---- 0.0------------
1978-11-15 -2.7 1.5 -4.1- 91.3- 2.7 3.7---- 0.0------------
1978-11-16 -0.2 4.1 -2.7- 84.3- 0.3 4.0---- 0.0------------
1978-11-17 1.2 6.2 -3.1- 81.8- 2.3 0.7---- 0.0------------
1978-11-18 -0.8 1.0 -3.4- 93.0- 4.7 4.7---- 0.0------------
1978-11-19 -0.5 0.7 -1.6- 89.8- 5.3 6.0---- 0.0------------
1978-11-20 0.9 6.8 -2.2- 71.3- 0.7 3.7---- 0.0------------
1978-11-21 1.7 6.7 -2.2- 85.0- 6.3 0.0---- 0.0------------
1978-11-22 -1.2 0.6 -5.5- 87.5- 6.0 4.0---- 0.0------------
1978-11-23 0.6 3.0 -0.8- 85.8- 8.0 3.3---- 0.9------------
1978-11-24 1.3 2.3 0.8- 89.8- 7.7 5.7---- 0.0------------
1978-11-25 3.3 5.4 0.8- 80.0- 2.3 3.7---- 0.0------------
1978-11-26 1.7 3.8 -1.7- 87.0- 3.3 4.0---- 0.0------------
1978-11-27 -0.2 8.4 -5.4- 84.3- 3.7 0.7---- 2.1------------
1978-11-28 3.0 5.5 -0.9- 94.8- 8.0 2.0---- 8.0------------
1978-11-29 -1.9 0.7 -2.6- 89.5- 7.3 0.7---- 0.1-- 12---------
1978-11-30 -4.0 -0.1-10.6- 95.5- 8.0 1.3---- 6.4-- 10---------
1978-12-01 0.5 1.3 -0.6- 95.0- 8.0 2.0---- 1.2-- 15---------
1978-12-02 -0.7 0.7 -1.8- 89.0- 8.0 1.3---- 0.2-- 14---------
1978-12-03 -4.9 -1.4 -8.2- 84.5- 8.0 0.3---- 0.5-- 12---------
1978-12-04-12.4 -8.2-14.0- 76.8- 6.3 1.0---- 0.2-- 15---------
1978-12-05-12.5-10.5-13.3- 79.8- 8.0 1.0---- 0.2-- 16---------
1978-12-06-13.3 -9.8-20.0- 80.3- 5.0 0.3---- 0.0-- 16---------
1978-12-07-19.4 -8.3-26.2- 80.5- 0.3 0.0---- 0.0-- 15---------
162.6 ms

 

Źródłem pochodzenia danych jest Instytut Meteorologii i Gospodarki Wodnej – Państwowy Instytut Badawczy. Dane Instytutu Meteorologii i Gospodarki Wodnej – Państwowego Instytutu Badawczego zostały przetworzone.

Dane źródłowe można odnaleźć na stronie https://dane.imgw.pl